sensor_id;sensor_type;location;lat;lon;timestamp;temperature;humidity
26745;DHT22;14342;50.960;13.880;2024-02-26T00:00:41;5.90;99.90
26745;DHT22;14342;50.960;13.880;2024-02-26T00:01:43;5.90;99.90
26745;DHT22;14342;50.960;13.880;2024-02-26T00:02:44;6.00;99.90
26745;DHT22;14342;50.960;13.880;2024-02-26T00:03:45;5.90;99.90
26745;DHT22;14342;50.960;13.880;2024-02-26T00:04:47;6.00;99.90
26745;DHT22;14342;50.960;13.880;2024-02-26T00:05:49;5.90;99.90
26745;DHT22;14342;50.960;13.880;2024-02-26T00:06:49;5.90;99.90
26745;DHT22;14342;50.960;13.880;2024-02-26T00:07:54;6.00;99.90
26745;DHT22;14342;50.960;13.880;2024-02-26T00:08:56;6.00;99.90
26745;DHT22;14342;50.960;13.880;2024-02-26T00:09:56;6.00;99.90
26745;DHT22;14342;50.960;13.880;2024-02-26T00:10:58;6.00;99.90
26745;DHT22;14342;50.960;13.880;2024-02-26T00:11:59;5.90;99.90
26745;DHT22;14342;50.960;13.880;2024-02-26T00:13:00;6.00;99.90
26745;DHT22;14342;50.960;13.880;2024-02-26T00:14:01;6.00;99.90
26745;DHT22;14342;50.960;13.880;2024-02-26T00:15:03;6.00;99.90
26745;DHT22;14342;50.960;13.880;2024-02-26T00:16:04;6.00;99.90
26745;DHT22;14342;50.960;13.880;2024-02-26T00:17:06;5.90;99.90
26745;DHT22;14342;50.960;13.880;2024-02-26T00:18:07;5.90;99.90
26745;DHT22;14342;50.960;13.880;2024-02-26T00:19:08;6.00;99.90
26745;DHT22;14342;50.960;13.880;2024-02-26T00:20:10;5.90;99.90
26745;DHT22;14342;50.960;13.880;2024-02-26T00:21:12;5.90;99.90
26745;DHT22;14342;50.960;13.880;2024-02-26T00:22:12;5.90;99.90
26745;DHT22;14342;50.960;13.880;2024-02-26T00:23:14;5.80;99.90
26745;DHT22;14342;50.960;13.880;2024-02-26T00:24:16;5.80;99.90
26745;DHT22;14342;50.960;13.880;2024-02-26T00:25:18;5.90;99.90
26745;DHT22;14342;50.960;13.880;2024-02-26T00:26:18;5.80;99.90
26745;DHT22;14342;50.960;13.880;2024-02-26T00:27:20;5.80;99.90
26745;DHT22;14342;50.960;13.880;2024-02-26T00:28:20;5.80;99.90
26745;DHT22;14342;50.960;13.880;2024-02-26T00:29:22;6.00;99.90
26745;DHT22;14342;50.960;13.880;2024-02-26T00:30:23;5.70;99.90
26745;DHT22;14342;50.960;13.880;2024-02-26T00:31:25;5.60;99.90
26745;DHT22;14342;50.960;13.880;2024-02-26T00:32:25;5.50;99.90
26745;DHT22;14342;50.960;13.880;2024-02-26T00:33:27;5.50;99.90
26745;DHT22;14342;50.960;13.880;2024-02-26T00:34:27;5.40;99.90
26745;DHT22;14342;50.960;13.880;2024-02-26T00:35:28;5.40;99.90
26745;DHT22;14342;50.960;13.880;2024-02-26T00:36:29;5.40;99.90
26745;DHT22;14342;50.960;13.880;2024-02-26T00:37:30;5.30;99.90
26745;DHT22;14342;50.960;13.880;2024-02-26T00:38:31;5.30;99.90
26745;DHT22;14342;50.960;13.880;2024-02-26T00:39:34;5.30;99.90
26745;DHT22;14342;50.960;13.880;2024-02-26T00:40:34;5.20;99.90
26745;DHT22;14342;50.960;13.880;2024-02-26T00:41:38;5.20;99.90
26745;DHT22;14342;50.960;13.880;2024-02-26T00:42:38;5.20;99.90
26745;DHT22;14342;50.960;13.880;2024-02-26T00:43:45;5.20;99.90
26745;DHT22;14342;50.960;13.880;2024-02-26T00:44:46;5.20;99.90
26745;DHT22;14342;50.960;13.880;2024-02-26T00:45:47;5.20;99.90
26745;DHT22;14342;50.960;13.880;2024-02-26T00:46:48;5.20;99.90
26745;DHT22;14342;50.960;13.880;2024-02-26T00:47:50;5.20;99.90
26745;DHT22;14342;50.960;13.880;2024-02-26T00:48:50;5.20;99.90
26745;DHT22;14342;50.960;13.880;2024-02-26T00:49:52;5.20;99.90
26745;DHT22;14342;50.960;13.880;2024-02-26T00:50:52;5.20;99.90
26745;DHT22;14342;50.960;13.880;2024-02-26T00:51:54;5.30;99.90
26745;DHT22;14342;50.960;13.880;2024-02-26T00:52:54;5.30;99.90
26745;DHT22;14342;50.960;13.880;2024-02-26T00:53:56;5.30;99.90
26745;DHT22;14342;50.960;13.880;2024-02-26T00:54:58;5.30;99.90
26745;DHT22;14342;50.960;13.880;2024-02-26T00:56:00;5.30;99.90
26745;DHT22;14342;50.960;13.880;2024-02-26T00:57:00;5.30;99.90
26745;DHT22;14342;50.960;13.880;2024-02-26T00:58:02;5.30;99.90
26745;DHT22;14342;50.960;13.880;2024-02-26T00:59:03;5.30;99.90
26745;DHT22;14342;50.960;13.880;2024-02-26T01:00:05;5.30;99.90
26745;DHT22;14342;50.960;13.880;2024-02-26T01:01:09;5.30;99.90
26745;DHT22;14342;50.960;13.880;2024-02-26T01:02:09;5.30;99.90
26745;DHT22;14342;50.960;13.880;2024-02-26T01:03:11;5.30;99.90
26745;DHT22;14342;50.960;13.880;2024-02-26T01:04:12;5.30;99.90
26745;DHT22;14342;50.960;13.880;2024-02-26T01:05:14;5.30;99.90
26745;DHT22;14342;50.960;13.880;2024-02-26T01:06:14;5.30;99.90
26745;DHT22;14342;50.960;13.880;2024-02-26T01:07:15;5.30;99.90
26745;DHT22;14342;50.960;13.880;2024-02-26T01:08:16;5.30;99.90
26745;DHT22;14342;50.960;13.880;2024-02-26T01:09:17;5.40;99.90
26745;DHT22;14342;50.960;13.880;2024-02-26T01:10:20;5.30;99.90
26745;DHT22;14342;50.960;13.880;2024-02-26T01:11:21;5.40;99.90
26745;DHT22;14342;50.960;13.880;2024-02-26T01:12:22;5.60;99.90
26745;DHT22;14342;50.960;13.880;2024-02-26T01:13:23;5.40;99.90
26745;DHT22;14342;50.960;13.880;2024-02-26T01:14:24;5.40;99.90
26745;DHT22;14342;50.960;13.880;2024-02-26T01:15:25;5.40;99.90
26745;DHT22;14342;50.960;13.880;2024-02-26T01:16:27;5.30;99.90
26745;DHT22;14342;50.960;13.880;2024-02-26T01:17:29;5.40;99.90
26745;DHT22;14342;50.960;13.880;2024-02-26T01:18:31;5.30;99.90
26745;DHT22;14342;50.960;13.880;2024-02-26T01:19:31;5.30;99.90
26745;DHT22;14342;50.960;13.880;2024-02-26T01:20:33;5.30;99.90
26745;DHT22;14342;50.960;13.880;2024-02-26T01:21:33;5.30;99.90
26745;DHT22;14342;50.960;13.880;2024-02-26T01:22:35;5.30;99.90
26745;DHT22;14342;50.960;13.880;2024-02-26T01:23:35;5.30;99.90
26745;DHT22;14342;50.960;13.880;2024-02-26T01:24:37;5.30;99.90
26745;DHT22;14342;50.960;13.880;2024-02-26T01:25:39;5.30;99.90
26745;DHT22;14342;50.960;13.880;2024-02-26T01:26:40;5.40;99.90
26745;DHT22;14342;50.960;13.880;2024-02-26T01:27:41;5.30;99.90
26745;DHT22;14342;50.960;13.880;2024-02-26T01:28:44;5.30;99.90
26745;DHT22;14342;50.960;13.880;2024-02-26T01:29:44;5.30;99.90
26745;DHT22;14342;50.960;13.880;2024-02-26T01:30:45;5.30;99.90
26745;DHT22;14342;50.960;13.880;2024-02-26T01:31:47;5.30;99.90
26745;DHT22;14342;50.960;13.880;2024-02-26T01:32:47;5.20;99.90
26745;DHT22;14342;50.960;13.880;2024-02-26T01:33:49;5.30;99.90
26745;DHT22;14342;50.960;13.880;2024-02-26T01:34:49;5.30;99.90
26745;DHT22;14342;50.960;13.880;2024-02-26T01:35:51;5.30;99.90
26745;DHT22;14342;50.960;13.880;2024-02-26T01:36:51;5.30;99.90
26745;DHT22;14342;50.960;13.880;2024-02-26T01:37:53;5.30;99.90
26745;DHT22;14342;50.960;13.880;2024-02-26T01:38:54;5.20;99.90
26745;DHT22;14342;50.960;13.880;2024-02-26T01:39:55;5.20;99.90
26745;DHT22;14342;50.960;13.880;2024-02-26T01:40:57;5.20;99.90
26745;DHT22;14342;50.960;13.880;2024-02-26T01:41:59;5.20;99.90
26745;DHT22;14342;50.960;13.880;2024-02-26T01:42:59;5.20;99.90
26745;DHT22;14342;50.960;13.880;2024-02-26T01:44:01;5.10;99.90
26745;DHT22;14342;50.960;13.880;2024-02-26T01:45:02;5.20;99.90
26745;DHT22;14342;50.960;13.880;2024-02-26T01:46:03;5.10;99.90
26745;DHT22;14342;50.960;13.880;2024-02-26T01:47:05;5.10;99.90
26745;DHT22;14342;50.960;13.880;2024-02-26T01:48:08;5.10;99.90
26745;DHT22;14342;50.960;13.880;2024-02-26T01:49:11;5.20;99.90
26745;DHT22;14342;50.960;13.880;2024-02-26T01:50:13;5.00;99.90
26745;DHT22;14342;50.960;13.880;2024-02-26T01:51:13;5.00;99.90
26745;DHT22;14342;50.960;13.880;2024-02-26T01:52:15;5.00;99.90
26745;DHT22;14342;50.960;13.880;2024-02-26T01:53:16;5.00;99.90
26745;DHT22;14342;50.960;13.880;2024-02-26T01:54:18;5.00;99.90
26745;DHT22;14342;50.960;13.880;2024-02-26T01:55:19;5.00;99.90
26745;DHT22;14342;50.960;13.880;2024-02-26T01:56:22;5.10;99.90
26745;DHT22;14342;50.960;13.880;2024-02-26T01:57:28;5.10;99.90
26745;DHT22;14342;50.960;13.880;2024-02-26T01:58:30;5.10;99.90
26745;DHT22;14342;50.960;13.880;2024-02-26T01:59:31;5.10;99.90
26745;DHT22;14342;50.960;13.880;2024-02-26T02:00:32;5.10;99.90
26745;DHT22;14342;50.960;13.880;2024-02-26T02:01:33;5.10;99.90
26745;DHT22;14342;50.960;13.880;2024-02-26T02:02:35;5.10;99.90
26745;DHT22;14342;50.960;13.880;2024-02-26T02:03:36;5.10;99.90
26745;DHT22;14342;50.960;13.880;2024-02-26T02:04:38;5.10;99.90
26745;DHT22;14342;50.960;13.880;2024-02-26T02:05:39;5.10;99.90
26745;DHT22;14342;50.960;13.880;2024-02-26T02:06:42;5.10;99.90
26745;DHT22;14342;50.960;13.880;2024-02-26T02:07:44;5.10;99.90
26745;DHT22;14342;50.960;13.880;2024-02-26T02:08:46;5.10;99.90
26745;DHT22;14342;50.960;13.880;2024-02-26T02:09:47;5.00;99.90
26745;DHT22;14342;50.960;13.880;2024-02-26T02:10:48;5.00;99.90
26745;DHT22;14342;50.960;13.880;2024-02-26T02:11:51;5.00;99.90
26745;DHT22;14342;50.960;13.880;2024-02-26T02:12:51;5.00;99.90
26745;DHT22;14342;50.960;13.880;2024-02-26T02:13:53;5.00;99.90
26745;DHT22;14342;50.960;13.880;2024-02-26T02:14:54;5.00;99.90
26745;DHT22;14342;50.960;13.880;2024-02-26T02:15:55;5.00;99.90
26745;DHT22;14342;50.960;13.880;2024-02-26T02:16:56;5.00;99.90
26745;DHT22;14342;50.960;13.880;2024-02-26T02:17:57;5.00;99.90
26745;DHT22;14342;50.960;13.880;2024-02-26T02:18:58;5.00;99.90
26745;DHT22;14342;50.960;13.880;2024-02-26T02:20:00;4.90;99.90
26745;DHT22;14342;50.960;13.880;2024-02-26T02:21:02;4.90;99.90
26745;DHT22;14342;50.960;13.880;2024-02-26T02:22:03;4.80;99.90
26745;DHT22;14342;50.960;13.880;2024-02-26T02:23:04;4.80;99.90
26745;DHT22;14342;50.960;13.880;2024-02-26T02:24:05;4.80;99.90
26745;DHT22;14342;50.960;13.880;2024-02-26T02:25:07;4.80;99.90
26745;DHT22;14342;50.960;13.880;2024-02-26T02:26:07;4.80;99.90
26745;DHT22;14342;50.960;13.880;2024-02-26T02:27:09;4.80;99.90
26745;DHT22;14342;50.960;13.880;2024-02-26T02:28:10;4.80;99.90
26745;DHT22;14342;50.960;13.880;2024-02-26T02:29:11;4.80;99.90
26745;DHT22;14342;50.960;13.880;2024-02-26T02:30:12;4.80;99.90
26745;DHT22;14342;50.960;13.880;2024-02-26T02:31:15;4.90;99.90
26745;DHT22;14342;50.960;13.880;2024-02-26T02:32:16;4.90;99.90
26745;DHT22;14342;50.960;13.880;2024-02-26T02:33:18;4.90;99.90
26745;DHT22;14342;50.960;13.880;2024-02-26T02:34:19;5.00;99.90
26745;DHT22;14342;50.960;13.880;2024-02-26T02:35:21;5.00;99.90
26745;DHT22;14342;50.960;13.880;2024-02-26T02:36:23;5.10;99.90
26745;DHT22;14342;50.960;13.880;2024-02-26T02:37:23;5.10;99.90
26745;DHT22;14342;50.960;13.880;2024-02-26T02:38:25;5.10;99.90
26745;DHT22;14342;50.960;13.880;2024-02-26T02:39:26;5.10;99.90
26745;DHT22;14342;50.960;13.880;2024-02-26T02:40:27;5.10;99.90
26745;DHT22;14342;50.960;13.880;2024-02-26T02:41:28;5.10;99.90
26745;DHT22;14342;50.960;13.880;2024-02-26T02:42:30;5.10;99.90
26745;DHT22;14342;50.960;13.880;2024-02-26T02:43:32;5.10;99.90
26745;DHT22;14342;50.960;13.880;2024-02-26T02:44:32;5.10;99.90
26745;DHT22;14342;50.960;13.880;2024-02-26T02:45:34;5.10;99.90
26745;DHT22;14342;50.960;13.880;2024-02-26T02:46:34;5.10;99.90
26745;DHT22;14342;50.960;13.880;2024-02-26T02:47:35;5.00;99.90
26745;DHT22;14342;50.960;13.880;2024-02-26T02:48:37;5.00;99.90
26745;DHT22;14342;50.960;13.880;2024-02-26T02:49:37;4.90;99.90
26745;DHT22;14342;50.960;13.880;2024-02-26T02:50:39;4.90;99.90
26745;DHT22;14342;50.960;13.880;2024-02-26T02:51:41;4.80;99.90
26745;DHT22;14342;50.960;13.880;2024-02-26T02:52:42;4.80;99.90
26745;DHT22;14342;50.960;13.880;2024-02-26T02:53:43;4.70;99.90
26745;DHT22;14342;50.960;13.880;2024-02-26T02:54:44;4.70;99.90
26745;DHT22;14342;50.960;13.880;2024-02-26T02:55:47;4.60;99.90
26745;DHT22;14342;50.960;13.880;2024-02-26T02:56:48;4.60;99.90
26745;DHT22;14342;50.960;13.880;2024-02-26T02:57:49;4.60;99.90
26745;DHT22;14342;50.960;13.880;2024-02-26T02:58:50;4.50;99.90
26745;DHT22;14342;50.960;13.880;2024-02-26T02:59:51;4.50;99.90
26745;DHT22;14342;50.960;13.880;2024-02-26T03:00:53;4.80;99.90
26745;DHT22;14342;50.960;13.880;2024-02-26T03:01:55;4.50;99.90
26745;DHT22;14342;50.960;13.880;2024-02-26T03:02:57;4.50;99.90
26745;DHT22;14342;50.960;13.880;2024-02-26T03:03:57;4.50;99.90
26745;DHT22;14342;50.960;13.880;2024-02-26T03:04:59;4.50;99.90
26745;DHT22;14342;50.960;13.880;2024-02-26T03:05:59;4.60;99.90
26745;DHT22;14342;50.960;13.880;2024-02-26T03:07:02;4.40;99.90
26745;DHT22;14342;50.960;13.880;2024-02-26T03:08:03;4.40;99.90
26745;DHT22;14342;50.960;13.880;2024-02-26T03:09:05;4.40;99.90
26745;DHT22;14342;50.960;13.880;2024-02-26T03:10:06;4.30;99.90
26745;DHT22;14342;50.960;13.880;2024-02-26T03:11:07;4.30;99.90
26745;DHT22;14342;50.960;13.880;2024-02-26T03:12:08;4.30;99.90
26745;DHT22;14342;50.960;13.880;2024-02-26T03:13:10;4.30;99.90
26745;DHT22;14342;50.960;13.880;2024-02-26T03:14:10;4.30;99.90
26745;DHT22;14342;50.960;13.880;2024-02-26T03:15:12;4.30;99.90
26745;DHT22;14342;50.960;13.880;2024-02-26T03:16:12;4.20;99.90
26745;DHT22;14342;50.960;13.880;2024-02-26T03:17:14;4.20;99.90
26745;DHT22;14342;50.960;13.880;2024-02-26T03:18:15;4.20;99.90
26745;DHT22;14342;50.960;13.880;2024-02-26T03:19:17;4.20;99.90
26745;DHT22;14342;50.960;13.880;2024-02-26T03:20:17;4.20;99.90
26745;DHT22;14342;50.960;13.880;2024-02-26T03:21:19;4.30;99.90
26745;DHT22;14342;50.960;13.880;2024-02-26T03:22:22;4.30;99.90
26745;DHT22;14342;50.960;13.880;2024-02-26T03:23:23;4.20;99.90
26745;DHT22;14342;50.960;13.880;2024-02-26T03:24:24;4.20;99.90
26745;DHT22;14342;50.960;13.880;2024-02-26T03:25:25;4.20;99.90
26745;DHT22;14342;50.960;13.880;2024-02-26T03:26:26;4.20;99.90
26745;DHT22;14342;50.960;13.880;2024-02-26T03:27:28;4.20;99.90
26745;DHT22;14342;50.960;13.880;2024-02-26T03:28:28;4.20;99.90
26745;DHT22;14342;50.960;13.880;2024-02-26T03:29:30;4.20;99.90
26745;DHT22;14342;50.960;13.880;2024-02-26T03:30:31;4.30;99.90
26745;DHT22;14342;50.960;13.880;2024-02-26T03:31:32;4.30;99.90
26745;DHT22;14342;50.960;13.880;2024-02-26T03:32:33;4.20;99.90
26745;DHT22;14342;50.960;13.880;2024-02-26T03:33:35;4.30;99.90
26745;DHT22;14342;50.960;13.880;2024-02-26T03:34:35;4.30;99.90
26745;DHT22;14342;50.960;13.880;2024-02-26T03:35:39;4.30;99.90
26745;DHT22;14342;50.960;13.880;2024-02-26T03:36:40;4.40;99.90
26745;DHT22;14342;50.960;13.880;2024-02-26T03:37:42;4.40;99.90
26745;DHT22;14342;50.960;13.880;2024-02-26T03:38:43;4.40;99.90
26745;DHT22;14342;50.960;13.880;2024-02-26T03:39:45;4.40;99.90
26745;DHT22;14342;50.960;13.880;2024-02-26T03:40:46;4.40;99.90
26745;DHT22;14342;50.960;13.880;2024-02-26T03:41:47;4.40;99.90
26745;DHT22;14342;50.960;13.880;2024-02-26T03:42:48;4.40;99.90
26745;DHT22;14342;50.960;13.880;2024-02-26T03:43:48;4.40;99.90
26745;DHT22;14342;50.960;13.880;2024-02-26T03:44:50;4.40;99.90
26745;DHT22;14342;50.960;13.880;2024-02-26T03:45:51;4.50;99.90
26745;DHT22;14342;50.960;13.880;2024-02-26T03:46:51;4.50;99.90
26745;DHT22;14342;50.960;13.880;2024-02-26T03:47:53;4.50;99.90
26745;DHT22;14342;50.960;13.880;2024-02-26T03:48:53;4.50;99.90
26745;DHT22;14342;50.960;13.880;2024-02-26T03:49:55;4.50;99.90
26745;DHT22;14342;50.960;13.880;2024-02-26T03:50:55;4.50;99.90
26745;DHT22;14342;50.960;13.880;2024-02-26T03:51:57;4.50;99.90
26745;DHT22;14342;50.960;13.880;2024-02-26T03:52:59;4.50;99.90
26745;DHT22;14342;50.960;13.880;2024-02-26T03:54:01;4.50;99.90
26745;DHT22;14342;50.960;13.880;2024-02-26T03:55:01;4.60;99.90
26745;DHT22;14342;50.960;13.880;2024-02-26T03:56:02;4.60;99.90
26745;DHT22;14342;50.960;13.880;2024-02-26T03:57:04;4.60;99.90
26745;DHT22;14342;50.960;13.880;2024-02-26T03:58:05;4.70;99.90
26745;DHT22;14342;50.960;13.880;2024-02-26T03:59:05;4.60;99.90
26745;DHT22;14342;50.960;13.880;2024-02-26T04:00:07;4.60;99.90
26745;DHT22;14342;50.960;13.880;2024-02-26T04:01:08;4.60;99.90
26745;DHT22;14342;50.960;13.880;2024-02-26T04:02:10;4.90;99.90
26745;DHT22;14342;50.960;13.880;2024-02-26T04:03:10;4.60;99.90
26745;DHT22;14342;50.960;13.880;2024-02-26T04:04:12;4.60;99.90
26745;DHT22;14342;50.960;13.880;2024-02-26T04:05:12;4.60;99.90
26745;DHT22;14342;50.960;13.880;2024-02-26T04:06:14;4.60;99.90
26745;DHT22;14342;50.960;13.880;2024-02-26T04:07:15;4.70;99.90
26745;DHT22;14342;50.960;13.880;2024-02-26T04:08:18;4.70;99.90
26745;DHT22;14342;50.960;13.880;2024-02-26T04:09:18;4.60;99.90
26745;DHT22;14342;50.960;13.880;2024-02-26T04:10:20;4.70;99.90
26745;DHT22;14342;50.960;13.880;2024-02-26T04:11:21;4.70;99.90
26745;DHT22;14342;50.960;13.880;2024-02-26T04:12:22;4.60;99.90
26745;DHT22;14342;50.960;13.880;2024-02-26T04:13:23;4.70;99.90
26745;DHT22;14342;50.960;13.880;2024-02-26T04:14:24;4.60;99.90
26745;DHT22;14342;50.960;13.880;2024-02-26T04:15:25;4.60;99.90
26745;DHT22;14342;50.960;13.880;2024-02-26T04:16:26;4.60;99.90
26745;DHT22;14342;50.960;13.880;2024-02-26T04:17:27;4.60;99.90
26745;DHT22;14342;50.960;13.880;2024-02-26T04:18:29;4.60;99.90
26745;DHT22;14342;50.960;13.880;2024-02-26T04:19:29;4.50;99.90
26745;DHT22;14342;50.960;13.880;2024-02-26T04:20:31;4.50;99.90
26745;DHT22;14342;50.960;13.880;2024-02-26T04:21:31;4.40;99.90
26745;DHT22;14342;50.960;13.880;2024-02-26T04:22:33;4.40;99.90
26745;DHT22;14342;50.960;13.880;2024-02-26T04:23:35;4.40;99.90
26745;DHT22;14342;50.960;13.880;2024-02-26T04:24:36;4.40;99.90
26745;DHT22;14342;50.960;13.880;2024-02-26T04:25:37;4.30;99.90
26745;DHT22;14342;50.960;13.880;2024-02-26T04:26:38;4.30;99.90
26745;DHT22;14342;50.960;13.880;2024-02-26T04:27:39;4.20;99.90
26745;DHT22;14342;50.960;13.880;2024-02-26T04:28:41;4.20;99.90
26745;DHT22;14342;50.960;13.880;2024-02-26T04:29:41;4.10;99.90
26745;DHT22;14342;50.960;13.880;2024-02-26T04:30:43;4.10;99.90
26745;DHT22;14342;50.960;13.880;2024-02-26T04:31:43;4.10;99.90
26745;DHT22;14342;50.960;13.880;2024-02-26T04:32:46;4.10;99.90
26745;DHT22;14342;50.960;13.880;2024-02-26T04:33:46;4.10;99.90
26745;DHT22;14342;50.960;13.880;2024-02-26T04:34:48;4.10;99.90
26745;DHT22;14342;50.960;13.880;2024-02-26T04:35:49;4.50;99.90
26745;DHT22;14342;50.960;13.880;2024-02-26T04:36:50;4.20;99.90
26745;DHT22;14342;50.960;13.880;2024-02-26T04:37:52;4.20;99.90
26745;DHT22;14342;50.960;13.880;2024-02-26T04:38:54;4.20;99.90
26745;DHT22;14342;50.960;13.880;2024-02-26T04:39:57;4.30;99.90
26745;DHT22;14342;50.960;13.880;2024-02-26T04:40:57;4.30;99.90
26745;DHT22;14342;50.960;13.880;2024-02-26T04:41:59;4.30;99.90
26745;DHT22;14342;50.960;13.880;2024-02-26T04:43:03;4.40;99.90
26745;DHT22;14342;50.960;13.880;2024-02-26T04:44:05;4.40;99.90
26745;DHT22;14342;50.960;13.880;2024-02-26T04:45:06;4.40;99.90
26745;DHT22;14342;50.960;13.880;2024-02-26T04:46:07;4.40;99.90
26745;DHT22;14342;50.960;13.880;2024-02-26T04:47:09;4.40;99.90
26745;DHT22;14342;50.960;13.880;2024-02-26T04:48:10;4.30;99.90
26745;DHT22;14342;50.960;13.880;2024-02-26T04:49:11;4.30;99.90
26745;DHT22;14342;50.960;13.880;2024-02-26T04:50:12;4.20;99.90
26745;DHT22;14342;50.960;13.880;2024-02-26T04:51:13;4.20;99.90
26745;DHT22;14342;50.960;13.880;2024-02-26T04:52:14;4.20;99.90
26745;DHT22;14342;50.960;13.880;2024-02-26T04:53:15;4.20;99.90
26745;DHT22;14342;50.960;13.880;2024-02-26T04:54:17;4.10;99.90
26745;DHT22;14342;50.960;13.880;2024-02-26T04:55:18;4.10;99.90
26745;DHT22;14342;50.960;13.880;2024-02-26T04:56:20;4.00;99.90
26745;DHT22;14342;50.960;13.880;2024-02-26T04:57:21;4.00;99.90
26745;DHT22;14342;50.960;13.880;2024-02-26T04:58:22;4.00;99.90
26745;DHT22;14342;50.960;13.880;2024-02-26T04:59:23;3.90;99.90
26745;DHT22;14342;50.960;13.880;2024-02-26T05:00:24;3.90;99.90
26745;DHT22;14342;50.960;13.880;2024-02-26T05:01:25;3.90;99.90
26745;DHT22;14342;50.960;13.880;2024-02-26T05:02:26;3.90;99.90
26745;DHT22;14342;50.960;13.880;2024-02-26T05:03:27;3.80;99.90
26745;DHT22;14342;50.960;13.880;2024-02-26T05:04:28;3.80;99.90
26745;DHT22;14342;50.960;13.880;2024-02-26T05:05:29;3.80;99.90
26745;DHT22;14342;50.960;13.880;2024-02-26T05:06:30;3.80;99.90
26745;DHT22;14342;50.960;13.880;2024-02-26T05:07:31;3.80;99.90
26745;DHT22;14342;50.960;13.880;2024-02-26T05:08:32;3.80;99.90
26745;DHT22;14342;50.960;13.880;2024-02-26T05:09:35;3.70;99.90
26745;DHT22;14342;50.960;13.880;2024-02-26T05:10:37;3.70;99.90
26745;DHT22;14342;50.960;13.880;2024-02-26T05:11:40;3.70;99.90
26745;DHT22;14342;50.960;13.880;2024-02-26T05:12:40;3.70;99.90
26745;DHT22;14342;50.960;13.880;2024-02-26T05:13:43;3.70;99.90
26745;DHT22;14342;50.960;13.880;2024-02-26T05:14:45;3.70;99.90
26745;DHT22;14342;50.960;13.880;2024-02-26T05:15:47;3.70;99.90
26745;DHT22;14342;50.960;13.880;2024-02-26T05:16:49;3.70;99.90
26745;DHT22;14342;50.960;13.880;2024-02-26T05:17:51;3.70;99.90
26745;DHT22;14342;50.960;13.880;2024-02-26T05:18:53;3.60;99.90
26745;DHT22;14342;50.960;13.880;2024-02-26T05:19:54;3.90;99.90
26745;DHT22;14342;50.960;13.880;2024-02-26T05:20:55;3.80;99.90
26745;DHT22;14342;50.960;13.880;2024-02-26T05:21:55;3.60;99.90
26745;DHT22;14342;50.960;13.880;2024-02-26T05:22:57;3.60;99.90
26745;DHT22;14342;50.960;13.880;2024-02-26T05:23:59;3.60;99.90
26745;DHT22;14342;50.960;13.880;2024-02-26T05:25:02;3.90;99.90
26745;DHT22;14342;50.960;13.880;2024-02-26T05:26:03;3.50;99.90
26745;DHT22;14342;50.960;13.880;2024-02-26T05:27:05;3.70;99.90
26745;DHT22;14342;50.960;13.880;2024-02-26T05:28:05;3.50;99.90
26745;DHT22;14342;50.960;13.880;2024-02-26T05:29:07;3.50;99.90
26745;DHT22;14342;50.960;13.880;2024-02-26T05:30:07;3.80;99.90
26745;DHT22;14342;50.960;13.880;2024-02-26T05:31:12;3.60;99.90
26745;DHT22;14342;50.960;13.880;2024-02-26T05:32:12;3.70;99.90
26745;DHT22;14342;50.960;13.880;2024-02-26T05:33:14;3.70;99.90
26745;DHT22;14342;50.960;13.880;2024-02-26T05:34:15;3.70;99.90
26745;DHT22;14342;50.960;13.880;2024-02-26T05:35:16;3.80;99.90
26745;DHT22;14342;50.960;13.880;2024-02-26T05:36:20;3.80;99.90
26745;DHT22;14342;50.960;13.880;2024-02-26T05:37:22;3.80;99.90
26745;DHT22;14342;50.960;13.880;2024-02-26T05:38:23;3.90;99.90
26745;DHT22;14342;50.960;13.880;2024-02-26T05:39:24;3.90;99.90
26745;DHT22;14342;50.960;13.880;2024-02-26T05:40:26;4.00;99.90
26745;DHT22;14342;50.960;13.880;2024-02-26T05:41:27;4.00;99.90
26745;DHT22;14342;50.960;13.880;2024-02-26T05:42:28;4.30;99.90
26745;DHT22;14342;50.960;13.880;2024-02-26T05:43:29;4.10;99.90
26745;DHT22;14342;50.960;13.880;2024-02-26T05:44:30;4.10;99.90
26745;DHT22;14342;50.960;13.880;2024-02-26T05:45:31;4.10;99.90
26745;DHT22;14342;50.960;13.880;2024-02-26T05:46:33;4.10;99.90
26745;DHT22;14342;50.960;13.880;2024-02-26T05:47:33;4.10;99.90
26745;DHT22;14342;50.960;13.880;2024-02-26T05:48:34;4.20;99.90
26745;DHT22;14342;50.960;13.880;2024-02-26T05:49:35;4.20;99.90
26745;DHT22;14342;50.960;13.880;2024-02-26T05:50:36;4.20;99.90
26745;DHT22;14342;50.960;13.880;2024-02-26T05:51:38;4.20;99.90
26745;DHT22;14342;50.960;13.880;2024-02-26T05:52:38;4.30;99.90
26745;DHT22;14342;50.960;13.880;2024-02-26T05:53:40;4.20;99.90
26745;DHT22;14342;50.960;13.880;2024-02-26T05:54:40;4.20;99.90
26745;DHT22;14342;50.960;13.880;2024-02-26T05:55:43;4.10;99.90
26745;DHT22;14342;50.960;13.880;2024-02-26T05:56:44;4.10;99.90
26745;DHT22;14342;50.960;13.880;2024-02-26T05:57:45;4.00;99.90
26745;DHT22;14342;50.960;13.880;2024-02-26T05:58:46;3.90;99.90
26745;DHT22;14342;50.960;13.880;2024-02-26T05:59:47;3.90;99.90
26745;DHT22;14342;50.960;13.880;2024-02-26T06:00:48;3.90;99.90
26745;DHT22;14342;50.960;13.880;2024-02-26T06:01:49;3.90;99.90
26745;DHT22;14342;50.960;13.880;2024-02-26T06:02:51;3.90;99.90
26745;DHT22;14342;50.960;13.880;2024-02-26T06:03:51;3.90;99.90
26745;DHT22;14342;50.960;13.880;2024-02-26T06:04:53;4.00;99.90
26745;DHT22;14342;50.960;13.880;2024-02-26T06:05:53;4.00;99.90
26745;DHT22;14342;50.960;13.880;2024-02-26T06:06:54;4.00;99.90
26745;DHT22;14342;50.960;13.880;2024-02-26T06:07:55;4.20;99.90
26745;DHT22;14342;50.960;13.880;2024-02-26T06:08:56;3.90;99.90
26745;DHT22;14342;50.960;13.880;2024-02-26T06:09:57;3.90;99.90
26745;DHT22;14342;50.960;13.880;2024-02-26T06:11:00;3.90;99.90
26745;DHT22;14342;50.960;13.880;2024-02-26T06:12:06;3.90;99.90
26745;DHT22;14342;50.960;13.880;2024-02-26T06:13:06;3.80;99.90
26745;DHT22;14342;50.960;13.880;2024-02-26T06:14:08;3.80;99.90
26745;DHT22;14342;50.960;13.880;2024-02-26T06:15:10;3.90;99.90
26745;DHT22;14342;50.960;13.880;2024-02-26T06:16:12;3.80;99.90
26745;DHT22;14342;50.960;13.880;2024-02-26T06:17:13;3.80;99.90
26745;DHT22;14342;50.960;13.880;2024-02-26T06:18:14;3.80;99.90
26745;DHT22;14342;50.960;13.880;2024-02-26T06:19:15;3.90;99.90
26745;DHT22;14342;50.960;13.880;2024-02-26T06:20:16;3.90;99.90
26745;DHT22;14342;50.960;13.880;2024-02-26T06:21:17;3.90;99.90
26745;DHT22;14342;50.960;13.880;2024-02-26T06:22:18;3.80;99.90
26745;DHT22;14342;50.960;13.880;2024-02-26T06:23:19;3.80;99.90
26745;DHT22;14342;50.960;13.880;2024-02-26T06:24:20;3.90;99.90
26745;DHT22;14342;50.960;13.880;2024-02-26T06:25:22;3.90;99.90
26745;DHT22;14342;50.960;13.880;2024-02-26T06:26:24;4.20;99.90
26745;DHT22;14342;50.960;13.880;2024-02-26T06:27:28;4.00;99.90